Time;durP1;ratioP1;P1;durP2;ratioP2;P2;SDS_P1;SDS_P2;PMS_P1;PMS_P2;Temp;Humidity;BMP_temperature;BMP_pressure;BME280_temperature;BME280_humidity;BME280_pressure;Samples;Min_cycle;Max_cycle;Signal;HPM_P1;HPM_P2
2021/05/24 00:02:18;;;;;;;4.32;2.88;;;;;;;;;;5115249;28;20207;-75
2021/05/24 00:04:45;;;;;;;5.37;2.80;;;;;;;;;;5116000;28;20557;-74
2021/05/24 00:07:11;;;;;;;4.80;2.60;;;;;;;;;;5116014;28;20442;-74
2021/05/24 00:09:38;;;;;;;3.33;2.73;;;;;;;;;;5115022;28;21073;-75
2021/05/24 00:12:06;;;;;;;3.00;2.80;;;;;;;;;;5115486;28;20832;-74
2021/05/24 00:14:35;;;;;;;4.70;3.03;;;;;;;;;;5115097;28;20231;-74
2021/05/24 00:17:02;;;;;;;2.50;2.30;;;;;;;;;;5115039;28;20791;-73
2021/05/24 00:19:29;;;;;;;6.25;2.95;;;;;;;;;;5115524;28;20252;-73
2021/05/24 00:21:56;;;;;;;3.07;2.30;;;;;;;;;;5114905;28;20200;-73
2021/05/24 00:24:22;;;;;;;5.47;2.90;;;;;;;;;;5115492;28;20448;-73
2021/05/24 00:26:49;;;;;;;2.50;2.17;;;;;;;;;;5115386;28;20475;-74
2021/05/24 00:29:19;;;;;;;4.80;2.30;;;;;;;;;;5114694;28;20447;-75
2021/05/24 00:31:47;;;;;;;2.45;2.25;;;;;;;;;;5114719;28;20452;-74
2021/05/24 00:34:13;;;;;;;3.60;2.55;;;;;;;;;;5114681;28;20196;-75
2021/05/24 00:36:40;;;;;;;4.35;2.70;;;;;;;;;;5114630;28;20207;-74
2021/05/24 00:39:08;;;;;;;3.60;2.20;;;;;;;;;;5114926;28;20286;-75
2021/05/24 00:41:35;;;;;;;3.10;2.00;;;;;;;;;;5114904;28;20449;-76
2021/05/24 00:44:02;;;;;;;2.20;2.10;;;;;;;;;;5115009;28;20445;-75
2021/05/24 00:46:29;;;;;;;4.97;2.35;;;;;;;;;;5114742;28;20499;-75
2021/05/24 00:48:57;;;;;;;4.63;2.63;;;;;;;;;;5113630;28;20713;-75
2021/05/24 00:51:23;;;;;;;8.10;4.28;;;;;;;;;;5114315;28;20473;-76
2021/05/24 00:53:50;;;;;;;5.40;2.80;;;;;;;;;;5114583;28;20204;-75
2021/05/24 00:56:17;;;;;;;2.80;2.60;;;;;;;;;;5114199;28;20199;-75
2021/05/24 00:58:44;;;;;;;2.63;2.42;;;;;;;;;;5114199;28;20441;-75
2021/05/24 01:01:10;;;;;;;5.40;2.20;;;;;;;;;;5114209;28;20236;-76
2021/05/24 01:03:37;;;;;;;3.37;2.30;;;;;;;;;;5114596;28;20278;-75
2021/05/24 01:06:05;;;;;;;2.55;2.35;;;;;;;;;;5114050;28;20507;-76
2021/05/24 01:08:32;;;;;;;4.47;2.45;;;;;;;;;;5114334;28;20265;-75
2021/05/24 01:10:59;;;;;;;4.10;2.60;;;;;;;;;;5113950;28;20220;-75
2021/05/24 01:13:26;;;;;;;3.63;2.10;;;;;;;;;;5113941;28;20199;-75
2021/05/24 01:15:52;;;;;;;3.40;2.42;;;;;;;;;;5114283;28;20283;-75
2021/05/24 01:18:19;;;;;;;3.80;2.30;;;;;;;;;;5113952;28;20276;-75
2021/05/24 01:20:46;;;;;;;2.40;2.20;;;;;;;;;;5114103;28;20552;-75
2021/05/24 01:23:17;;;;;;;2.90;2.15;;;;;;;;;;5114882;28;20575;-75
2021/05/24 01:25:44;;;;;;;3.67;2.20;;;;;;;;;;5113792;28;20308;-74
2021/05/24 01:28:12;;;;;;;3.20;2.22;;;;;;;;;;5114469;28;20227;-74
2021/05/24 01:30:39;;;;;;;3.13;2.15;;;;;;;;;;5114491;28;20265;-74
2021/05/24 01:33:06;;;;;;;3.65;1.90;;;;;;;;;;5113964;28;20292;-74
2021/05/24 01:35:34;;;;;;;5.90;2.60;;;;;;;;;;5113796;28;20213;-74
2021/05/24 01:38:00;;;;;;;3.95;2.45;;;;;;;;;;5113712;28;20944;-74
2021/05/24 01:40:28;;;;;;;3.33;2.50;;;;;;;;;;5113655;28;20294;-74
2021/05/24 01:42:56;;;;;;;3.53;2.67;;;;;;;;;;5113654;28;20201;-74
2021/05/24 01:45:23;;;;;;;2.30;2.10;;;;;;;;;;5113899;28;20195;-74
2021/05/24 01:47:49;;;;;;;3.50;2.47;;;;;;;;;;5113561;28;20190;-74
2021/05/24 01:50:16;;;;;;;6.05;2.40;;;;;;;;;;5113505;28;20579;-74
2021/05/24 01:52:43;;;;;;;4.38;2.35;;;;;;;;;;5113567;28;20190;-74
2021/05/24 01:55:10;;;;;;;2.40;2.20;;;;;;;;;;5113725;28;20546;-75
2021/05/24 01:57:38;;;;;;;5.05;2.70;;;;;;;;;;5113676;28;20544;-74
2021/05/24 02:00:07;;;;;;;2.90;2.70;;;;;;;;;;5115825;28;20199;-75
2021/05/24 02:02:33;;;;;;;1.90;1.80;;;;;;;;;;5117894;28;20197;-75
2021/05/24 02:05:00;;;;;;;2.30;2.10;;;;;;;;;;5117920;28;20190;-75
2021/05/24 02:07:30;;;;;;;2.65;2.45;;;;;;;;;;5117741;28;20246;-76
2021/05/24 02:09:57;;;;;;;2.58;2.35;;;;;;;;;;5117993;28;20219;-74
2021/05/24 02:12:24;;;;;;;3.35;2.30;;;;;;;;;;5118108;28;20194;-74
2021/05/24 02:14:51;;;;;;;5.90;2.30;;;;;;;;;;5117642;28;20191;-75
2021/05/24 02:17:18;;;;;;;5.20;2.45;;;;;;;;;;5117308;28;20244;-75
2021/05/24 02:19:48;;;;;;;4.13;2.15;;;;;;;;;;5117340;28;20290;-75
2021/05/24 02:22:14;;;;;;;4.55;2.50;;;;;;;;;;5117216;28;20203;-74
2021/05/24 02:24:41;;;;;;;4.10;2.20;;;;;;;;;;5117176;28;20201;-75
2021/05/24 02:27:08;;;;;;;2.70;2.50;;;;;;;;;;5117747;28;20260;-75
2021/05/24 02:29:35;;;;;;;2.53;2.17;;;;;;;;;;5117680;28;20560;-74
2021/05/24 02:32:03;;;;;;;4.95;2.90;;;;;;;;;;5117720;28;20247;-74
2021/05/24 02:34:30;;;;;;;4.72;2.17;;;;;;;;;;5117308;28;20285;-77
2021/05/24 02:36:56;;;;;;;4.20;2.22;;;;;;;;;;5117294;28;20586;-76
2021/05/24 02:39:23;;;;;;;4.57;1.90;;;;;;;;;;5117605;28;20195;-76
2021/05/24 02:41:50;;;;;;;3.80;2.50;;;;;;;;;;5116830;28;20195;-76
2021/05/24 02:44:16;;;;;;;5.18;2.45;;;;;;;;;;5116771;28;20452;-76
2021/05/24 02:46:43;;;;;;;2.28;1.90;;;;;;;;;;5117492;28;20665;-76
2021/05/24 02:49:11;;;;;;;3.13;1.92;;;;;;;;;;5117031;28;20192;-76
2021/05/24 02:51:38;;;;;;;3.50;3.20;;;;;;;;;;5116914;28;20230;-76
2021/05/24 02:54:05;;;;;;;3.20;2.13;;;;;;;;;;5116670;28;21009;-76
2021/05/24 02:56:32;;;;;;;4.13;2.08;;;;;;;;;;5116501;28;20446;-74
2021/05/24 02:58:59;;;;;;;2.92;2.05;;;;;;;;;;5116990;28;20285;-74
2021/05/24 03:01:27;;;;;;;4.38;2.50;;;;;;;;;;5116482;28;20197;-74
2021/05/24 03:03:56;;;;;;;2.65;2.05;;;;;;;;;;5117124;28;20551;-74
2021/05/24 03:06:24;;;;;;;5.20;2.15;;;;;;;;;;5116582;28;20254;-74
2021/05/24 03:08:51;;;;;;;3.53;2.30;;;;;;;;;;5116353;28;20202;-74
2021/05/24 03:11:18;;;;;;;1.98;1.80;;;;;;;;;;5115155;28;20215;-74
2021/05/24 03:13:45;;;;;;;2.22;1.90;;;;;;;;;;5116384;28;20202;-74
2021/05/24 03:16:12;;;;;;;4.45;1.60;;;;;;;;;;5116376;28;20199;-74
2021/05/24 03:18:39;;;;;;;1.80;1.70;;;;;;;;;;5116303;28;20571;-74
2021/05/24 03:21:06;;;;;;;2.78;2.17;;;;;;;;;;5116482;28;20293;-74
2021/05/24 03:23:33;;;;;;;2.93;2.40;;;;;;;;;;5115790;28;20672;-74
2021/05/24 03:26:00;;;;;;;6.68;2.30;;;;;;;;;;5115726;28;20484;-75
2021/05/24 03:28:26;;;;;;;4.50;2.00;;;;;;;;;;5115822;28;20200;-75
2021/05/24 03:30:53;;;;;;;10.90;2.25;;;;;;;;;;5115915;28;20226;-75
2021/05/24 03:33:20;;;;;;;4.20;2.60;;;;;;;;;;5115722;28;20252;-75
2021/05/24 03:35:47;;;;;;;2.50;2.30;;;;;;;;;;5115977;28;20196;-75
2021/05/24 03:38:13;;;;;;;4.23;2.00;;;;;;;;;;5115524;28;20475;-74
2021/05/24 03:40:41;;;;;;;2.58;2.00;;;;;;;;;;5115852;28;20468;-75
2021/05/24 03:43:07;;;;;;;2.47;1.80;;;;;;;;;;5115494;28;20197;-75
2021/05/24 03:45:36;;;;;;;3.10;2.30;;;;;;;;;;5115431;28;20450;-75
2021/05/24 03:48:03;;;;;;;1.90;1.80;;;;;;;;;;5115430;28;20680;-75
2021/05/24 03:50:30;;;;;;;2.85;2.00;;;;;;;;;;5115258;28;20211;-74
2021/05/24 03:52:56;;;;;;;1.93;1.83;;;;;;;;;;5115522;28;20281;-74
2021/05/24 03:55:23;;;;;;;2.65;2.20;;;;;;;;;;5115243;28;20448;-74
2021/05/24 03:57:53;;;;;;;5.55;1.80;;;;;;;;;;5115817;28;20203;-74
2021/05/24 04:00:21;;;;;;;2.10;1.75;;;;;;;;;;5116028;28;20187;-75
2021/05/24 04:02:47;;;;;;;2.80;1.98;;;;;;;;;;5115211;28;20202;-76
2021/05/24 04:05:18;;;;;;;1.70;1.60;;;;;;;;;;5115366;28;20199;-75
2021/05/24 04:07:49;;;;;;;2.67;2.07;;;;;;;;;;5115791;28;20667;-77
2021/05/24 04:10:16;;;;;;;3.25;1.83;;;;;;;;;;5116012;28;20889;-76
2021/05/24 04:12:43;;;;;;;1.60;1.50;;;;;;;;;;5114919;28;20189;-75
2021/05/24 04:15:12;;;;;;;5.53;1.83;;;;;;;;;;5115281;28;20286;-75
2021/05/24 04:17:40;;;;;;;2.80;1.93;;;;;;;;;;5115264;28;20526;-75
2021/05/24 04:20:07;;;;;;;1.70;1.60;;;;;;;;;;5114648;28;20490;-75
2021/05/24 04:22:35;;;;;;;3.45;2.00;;;;;;;;;;5114658;28;20660;-75
2021/05/24 04:25:02;;;;;;;2.93;2.40;;;;;;;;;;5115398;28;20195;-74
2021/05/24 04:27:28;;;;;;;2.47;1.70;;;;;;;;;;5114758;28;20475;-72
2021/05/24 04:29:55;;;;;;;6.38;1.88;;;;;;;;;;5123472;27;20282;-73
2021/05/24 04:32:23;;;;;;;2.53;1.90;;;;;;;;;;5113443;28;20663;-73
2021/05/24 04:34:49;;;;;;;2.10;1.90;;;;;;;;;;5113484;28;20441;-73
2021/05/24 04:37:16;;;;;;;2.00;1.80;;;;;;;;;;5113975;28;20850;-73
2021/05/24 04:39:44;;;;;;;4.37;1.70;;;;;;;;;;5114069;28;20443;-73
2021/05/24 04:42:10;;;;;;;1.60;1.45;;;;;;;;;;5114194;28;20438;-73
2021/05/24 04:44:37;;;;;;;2.73;1.90;;;;;;;;;;5114354;28;20284;-73
2021/05/24 04:47:04;;;;;;;2.60;1.80;;;;;;;;;;5114352;28;20449;-74
2021/05/24 04:49:32;;;;;;;2.63;2.10;;;;;;;;;;5114369;28;20484;-75
2021/05/24 04:51:58;;;;;;;2.53;1.57;;;;;;;;;;5113883;28;20517;-73
2021/05/24 04:54:25;;;;;;;1.80;1.70;;;;;;;;;;5114332;28;20439;-73
2021/05/24 04:56:52;;;;;;;2.80;2.60;;;;;;;;;;5114196;28;20866;-74
2021/05/24 04:59:19;;;;;;;2.63;1.77;;;;;;;;;;5113757;28;20935;-74
2021/05/24 05:01:47;;;;;;;4.83;2.00;;;;;;;;;;5114009;28;20490;-74
2021/05/24 05:04:14;;;;;;;3.00;2.07;;;;;;;;;;5113705;28;20446;-74
2021/05/24 05:06:42;;;;;;;1.90;1.80;;;;;;;;;;5113865;28;20438;-74
2021/05/24 05:09:09;;;;;;;3.03;1.50;;;;;;;;;;5114140;28;20437;-74
2021/05/24 05:11:35;;;;;;;2.63;2.00;;;;;;;;;;5113867;28;20461;-73
2021/05/24 05:14:02;;;;;;;3.17;1.70;;;;;;;;;;5113998;28;20446;-74
2021/05/24 05:16:29;;;;;;;2.40;1.57;;;;;;;;;;5113692;28;20442;-74
2021/05/24 05:18:55;;;;;;;1.83;1.43;;;;;;;;;;5113951;28;20431;-74
2021/05/24 05:21:25;;;;;;;1.93;1.83;;;;;;;;;;5113204;28;20445;-74
2021/05/24 05:23:52;;;;;;;1.97;1.80;;;;;;;;;;5113508;28;20448;-74
2021/05/24 05:26:19;;;;;;;1.73;1.63;;;;;;;;;;5113712;28;20510;-74
2021/05/24 05:28:46;;;;;;;4.00;1.90;;;;;;;;;;5113761;28;20447;-73
2021/05/24 05:31:13;;;;;;;1.57;1.20;;;;;;;;;;5113406;28;20474;-73
2021/05/24 05:33:39;;;;;;;3.47;1.70;;;;;;;;;;5113132;28;20443;-74
2021/05/24 05:36:06;;;;;;;1.53;1.43;;;;;;;;;;5113326;28;20465;-74
2021/05/24 05:38:33;;;;;;;1.93;1.77;;;;;;;;;;5113935;28;20438;-73
2021/05/24 05:41:02;;;;;;;2.80;1.70;;;;;;;;;;5113261;28;20796;-73
2021/05/24 05:43:28;;;;;;;1.93;1.20;;;;;;;;;;5114257;28;20442;-74
2021/05/24 05:45:55;;;;;;;4.40;1.83;;;;;;;;;;5113872;28;20434;-73
2021/05/24 05:48:22;;;;;;;1.40;1.30;;;;;;;;;;5113371;28;20935;-74
2021/05/24 05:50:48;;;;;;;4.10;1.93;;;;;;;;;;5114236;28;20478;-74
2021/05/24 05:53:15;;;;;;;1.80;1.70;;;;;;;;;;5113592;28;20491;-74
2021/05/24 05:55:42;;;;;;;4.93;1.87;;;;;;;;;;5113588;28;20438;-74
2021/05/24 05:58:10;;;;;;;1.80;1.57;;;;;;;;;;5113670;28;20461;-75
2021/05/24 06:00:37;;;;;;;2.73;1.60;;;;;;;;;;5113125;28;20441;-74
2021/05/24 06:03:04;;;;;;;4.83;1.40;;;;;;;;;;5113535;28;20802;-74
2021/05/24 06:05:31;;;;;;;2.70;1.77;;;;;;;;;;5113546;28;20534;-74
2021/05/24 06:07:59;;;;;;;4.00;1.70;;;;;;;;;;5113227;28;20938;-74
2021/05/24 06:10:26;;;;;;;4.73;1.77;;;;;;;;;;5113166;28;20479;-74
2021/05/24 06:12:52;;;;;;;2.77;1.33;;;;;;;;;;5113467;28;20525;-74
2021/05/24 06:15:20;;;;;;;3.17;2.03;;;;;;;;;;5113329;28;20835;-74
2021/05/24 06:17:47;;;;;;;2.00;1.57;;;;;;;;;;5112991;28;20439;-75
2021/05/24 06:20:14;;;;;;;7.23;2.53;;;;;;;;;;5113008;28;20951;-73
2021/05/24 06:22:41;;;;;;;3.70;2.00;;;;;;;;;;5112923;28;20441;-74
2021/05/24 06:25:08;;;;;;;2.50;1.67;;;;;;;;;;5113427;28;20467;-74
2021/05/24 06:27:35;;;;;;;1.83;1.50;;;;;;;;;;5112764;28;20564;-74
2021/05/24 06:30:04;;;;;;;1.20;1.10;;;;;;;;;;5113291;28;20438;-74
2021/05/24 06:32:31;;;;;;;1.80;1.40;;;;;;;;;;5113399;28;20518;-74
2021/05/24 06:34:58;;;;;;;1.73;1.40;;;;;;;;;;5113069;28;21011;-75
2021/05/24 06:37:25;;;;;;;2.83;1.70;;;;;;;;;;5112814;28;20453;-75
2021/05/24 06:39:51;;;;;;;2.80;1.50;;;;;;;;;;5112999;28;20439;-74
2021/05/24 06:42:18;;;;;;;3.30;1.90;;;;;;;;;;5112864;28;20443;-74
2021/05/24 06:44:45;;;;;;;2.50;1.20;;;;;;;;;;5112804;28;20483;-74
2021/05/24 06:47:12;;;;;;;2.10;1.57;;;;;;;;;;5114846;28;20439;-74
2021/05/24 06:49:40;;;;;;;4.07;1.77;;;;;;;;;;5116848;28;20445;-74
2021/05/24 06:52:07;;;;;;;2.87;1.70;;;;;;;;;;5116551;28;20481;-74
2021/05/24 06:54:34;;;;;;;3.13;1.50;;;;;;;;;;5117075;28;20487;-75
2021/05/24 06:57:03;;;;;;;2.27;1.43;;;;;;;;;;5116589;28;20552;-73
2021/05/24 06:59:30;;;;;;;2.07;1.70;;;;;;;;;;5116266;28;20651;-73
2021/05/24 07:01:57;;;;;;;1.50;1.40;;;;;;;;;;5116064;28;20485;-74
2021/05/24 07:04:24;;;;;;;1.60;1.20;;;;;;;;;;5116321;28;20988;-74
2021/05/24 07:06:52;;;;;;;2.50;1.50;;;;;;;;;;5116604;28;20465;-74
2021/05/24 07:09:18;;;;;;;2.13;1.47;;;;;;;;;;5116858;28;20796;-74
2021/05/24 07:11:45;;;;;;;1.87;1.30;;;;;;;;;;5116549;28;20470;-75
2021/05/24 07:14:12;;;;;;;3.47;1.50;;;;;;;;;;5116207;28;20963;-74
2021/05/24 07:16:39;;;;;;;1.80;1.70;;;;;;;;;;5116444;28;20435;-75
2021/05/24 07:19:05;;;;;;;1.80;1.50;;;;;;;;;;5117199;28;20524;-79
2021/05/24 07:21:32;;;;;;;2.07;1.27;;;;;;;;;;5115635;28;20474;-77
2021/05/24 07:24:00;;;;;;;1.90;1.30;;;;;;;;;;5116157;28;20449;-76
2021/05/24 07:26:26;;;;;;;1.70;1.30;;;;;;;;;;5116404;28;20807;-77
2021/05/24 07:28:53;;;;;;;1.43;1.30;;;;;;;;;;5116125;28;20454;-74
2021/05/24 07:31:20;;;;;;;4.00;1.30;;;;;;;;;;5115873;28;20478;-77
2021/05/24 07:33:46;;;;;;;2.13;1.50;;;;;;;;;;5116112;28;20476;-75
2021/05/24 07:36:13;;;;;;;5.60;1.57;;;;;;;;;;5116001;28;20435;-77
2021/05/24 07:38:40;;;;;;;2.13;1.37;;;;;;;;;;5115762;28;20451;-75
2021/05/24 07:41:07;;;;;;;1.37;1.27;;;;;;;;;;5115994;28;20435;-75
2021/05/24 07:43:34;;;;;;;2.50;1.40;;;;;;;;;;5115553;28;20443;-76
2021/05/24 07:46:01;;;;;;;4.80;1.57;;;;;;;;;;5114993;27;20663;-73
2021/05/24 07:48:27;;;;;;;3.20;1.43;;;;;;;;;;5124424;27;20454;-75
2021/05/24 07:50:54;;;;;;;2.03;1.50;;;;;;;;;;5136011;27;20465;-75
2021/05/24 07:53:21;;;;;;;4.93;1.17;;;;;;;;;;5136015;27;20831;-75
2021/05/24 07:55:48;;;;;;;3.77;1.60;;;;;;;;;;5136577;27;20434;-76
2021/05/24 07:58:16;;;;;;;1.53;1.27;;;;;;;;;;5136149;27;20461;-77
2021/05/24 08:00:42;;;;;;;1.30;1.20;;;;;;;;;;5135939;27;20508;-77
2021/05/24 08:03:09;;;;;;;9.80;1.50;;;;;;;;;;5135996;27;20438;-76
2021/05/24 08:05:38;;;;;;;1.93;1.30;;;;;;;;;;5135924;27;20637;-75
2021/05/24 08:08:05;;;;;;;2.03;1.30;;;;;;;;;;5136159;27;20442;-75
2021/05/24 08:10:32;;;;;;;3.70;1.50;;;;;;;;;;5135824;27;20576;-75
2021/05/24 08:12:59;;;;;;;1.33;1.23;;;;;;;;;;5135491;27;20530;-75
2021/05/24 08:15:29;;;;;;;2.03;1.57;;;;;;;;;;5136134;27;20438;-75
2021/05/24 08:17:56;;;;;;;4.40;2.60;;;;;;;;;;5118394;27;20434;-75
2021/05/24 08:20:23;;;;;;;1.20;1.10;;;;;;;;;;5115072;28;20523;-73
2021/05/24 08:22:50;;;;;;;2.83;1.33;;;;;;;;;;5115320;28;20434;-75
2021/05/24 08:25:17;;;;;;;3.33;1.30;;;;;;;;;;5115228;28;20438;-76
2021/05/24 08:27:44;;;;;;;3.47;1.30;;;;;;;;;;5115206;28;20445;-75
2021/05/24 08:30:11;;;;;;;1.87;1.20;;;;;;;;;;5115269;28;20465;-74
2021/05/24 08:32:39;;;;;;;6.70;1.30;;;;;;;;;;5115065;28;20437;-75
2021/05/24 08:35:06;;;;;;;1.70;1.27;;;;;;;;;;5114783;28;20439;-75
2021/05/24 08:37:33;;;;;;;3.00;1.50;;;;;;;;;;5115011;28;20808;-75
2021/05/24 08:39:59;;;;;;;2.77;1.17;;;;;;;;;;5114933;28;20847;-75
2021/05/24 08:42:30;;;;;;;2.03;1.40;;;;;;;;;;5119825;27;20451;-76
2021/05/24 08:44:57;;;;;;;6.03;1.70;;;;;;;;;;5134575;27;20430;-75
2021/05/24 08:47:24;;;;;;;2.20;1.30;;;;;;;;;;5134606;27;20438;-75
2021/05/24 08:49:52;;;;;;;1.40;1.10;;;;;;;;;;5135035;27;20442;-74
2021/05/24 08:52:19;;;;;;;3.27;1.83;;;;;;;;;;5134499;27;20500;-74
2021/05/24 08:54:46;;;;;;;4.17;1.40;;;;;;;;;;5134809;27;20434;-76
2021/05/24 08:57:13;;;;;;;1.67;1.57;;;;;;;;;;5134793;27;20521;-76
2021/05/24 08:59:40;;;;;;;3.60;1.80;;;;;;;;;;5134892;27;20520;-76
2021/05/24 09:02:06;;;;;;;1.67;1.57;;;;;;;;;;5134553;27;20524;-75
2021/05/24 09:04:40;;;;;;;2.00;1.50;;;;;;;;;;5134545;27;20444;-76
2021/05/24 09:07:08;;;;;;;1.53;1.20;;;;;;;;;;5134815;27;20492;-74
2021/05/24 09:09:35;;;;;;;3.37;1.50;;;;;;;;;;5134567;27;20482;-75
2021/05/24 09:12:04;;;;;;;2.60;1.30;;;;;;;;;;5134286;27;20470;-75
2021/05/24 09:14:32;;;;;;;2.50;1.60;;;;;;;;;;5135243;27;20434;-75
2021/05/24 09:16:59;;;;;;;1.40;1.30;;;;;;;;;;5134927;27;20434;-74
2021/05/24 09:19:27;;;;;;;1.60;1.20;;;;;;;;;;5134739;27;20447;-75
2021/05/24 09:21:55;;;;;;;1.20;1.10;;;;;;;;;;5134684;27;20443;-75
2021/05/24 09:24:28;;;;;;;2.23;1.40;;;;;;;;;;5134198;27;20517;-75
2021/05/24 09:26:55;;;;;;;4.13;1.30;;;;;;;;;;5134718;27;20493;-75
2021/05/24 09:29:23;;;;;;;7.53;1.40;;;;;;;;;;5134182;27;20466;-76
2021/05/24 09:32:08;;;;;;;1.87;1.57;;;;;;;;;;5134050;27;20478;-74
2021/05/24 09:34:35;;;;;;;5.63;1.60;;;;;;;;;;5134843;27;20442;-73
2021/05/24 09:37:02;;;;;;;2.50;1.30;;;;;;;;;;5134393;27;20531;-73
2021/05/24 09:39:33;;;;;;;1.60;1.50;;;;;;;;;;5134155;27;20453;-74
2021/05/24 09:42:05;;;;;;;3.10;1.47;;;;;;;;;;5134871;27;20762;-74
2021/05/24 09:44:33;;;;;;;2.03;1.60;;;;;;;;;;5134298;28;20514;-74
2021/05/24 09:47:00;;;;;;;2.47;1.43;;;;;;;;;;5134262;28;20504;-74
2021/05/24 09:49:27;;;;;;;2.37;1.60;;;;;;;;;;5134320;28;20517;-74
2021/05/24 09:51:55;;;;;;;4.00;1.37;;;;;;;;;;5134913;28;20533;-74
2021/05/24 09:54:23;;;;;;;2.07;1.40;;;;;;;;;;5134223;28;20446;-73
2021/05/24 09:56:51;;;;;;;1.73;1.40;;;;;;;;;;5134051;28;20537;-73
2021/05/24 09:59:18;;;;;;;3.93;1.37;;;;;;;;;;5134035;28;20520;-74
2021/05/24 10:01:47;;;;;;;1.77;1.53;;;;;;;;;;5134366;28;20448;-76
2021/05/24 10:04:15;;;;;;;1.80;1.40;;;;;;;;;;5133777;28;20438;-75
2021/05/24 10:06:42;;;;;;;2.90;1.57;;;;;;;;;;5134410;28;20465;-75
2021/05/24 10:09:10;;;;;;;1.80;1.20;;;;;;;;;;5134116;28;20438;-76
2021/05/24 10:11:37;;;;;;;3.23;1.60;;;;;;;;;;5134091;28;20564;-75
2021/05/24 10:14:05;;;;;;;3.37;2.33;;;;;;;;;;5134811;28;20520;-76
2021/05/24 10:16:34;;;;;;;1.80;1.50;;;;;;;;;;5133943;28;20468;-75
2021/05/24 10:19:01;;;;;;;3.43;2.37;;;;;;;;;;5134108;28;20454;-75
2021/05/24 10:21:28;;;;;;;2.90;1.57;;;;;;;;;;5136636;27;20473;-75
2021/05/24 10:24:00;;;;;;;2.17;1.97;;;;;;;;;;5138142;27;20427;-78
2021/05/24 10:26:27;;;;;;;3.77;2.90;;;;;;;;;;5137725;27;20462;-75
2021/05/24 10:28:54;;;;;;;1.40;1.30;;;;;;;;;;5137701;27;20482;-75
2021/05/24 10:31:22;;;;;;;1.93;1.40;;;;;;;;;;5125505;27;20557;-78
2021/05/24 10:33:50;;;;;;;7.23;1.80;;;;;;;;;;5137596;27;20871;-78
2021/05/24 10:36:18;;;;;;;2.20;1.33;;;;;;;;;;5137820;27;20442;-75
2021/05/24 10:38:48;;;;;;;3.73;1.83;;;;;;;;;;5137686;27;20456;-75
2021/05/24 10:41:16;;;;;;;2.90;1.80;;;;;;;;;;5137708;27;20460;-75
2021/05/24 10:43:44;;;;;;;1.77;1.40;;;;;;;;;;5137304;27;20532;-75
2021/05/24 10:46:44;;;;;;;1.30;1.20;;;;;;;;;;5137683;27;20475;-76
2021/05/24 10:49:19;;;;;;;1.80;1.70;;;;;;;;;;5054003;28;20426;-74
2021/05/24 10:51:50;;;;;;;4.60;1.40;;;;;;;;;;5053860;28;20480;-74
2021/05/24 10:54:24;;;;;;;2.83;1.63;;;;;;;;;;5098328;27;20473;-75
2021/05/24 10:57:06;;;;;;;1.83;1.50;;;;;;;;;;5137302;27;20777;-75
2021/05/24 10:59:50;;;;;;;3.80;1.50;;;;;;;;;;5134858;27;20727;-76
2021/05/24 11:02:17;;;;;;;3.13;2.30;;;;;;;;;;5116487;28;20803;-75
2021/05/24 11:04:51;;;;;;;2.80;1.50;;;;;;;;;;5116967;28;20469;-77
2021/05/24 11:07:22;;;;;;;2.80;1.63;;;;;;;;;;5116415;28;20431;-76
2021/05/24 11:09:49;;;;;;;1.63;1.40;;;;;;;;;;5116246;28;20439;-76
2021/05/24 11:12:28;;;;;;;2.67;1.70;;;;;;;;;;5116420;28;20475;-76
2021/05/24 11:15:08;;;;;;;2.70;1.87;;;;;;;;;;5116362;28;20484;-76
2021/05/24 11:17:53;;;;;;;2.00;1.63;;;;;;;;;;5116078;28;20441;-77
2021/05/24 11:20:30;;;;;;;2.23;1.40;;;;;;;;;;5116681;28;20843;-75
2021/05/24 11:23:10;;;;;;;2.43;1.50;;;;;;;;;;5116648;28;20443;-75
2021/05/24 11:25:57;;;;;;;5.00;1.50;;;;;;;;;;5116530;28;20487;-76
2021/05/24 11:28:34;;;;;;;2.97;1.40;;;;;;;;;;5115900;28;20455;-76
2021/05/24 11:31:11;;;;;;;1.50;1.40;;;;;;;;;;5115824;28;21032;-76
2021/05/24 11:33:42;;;;;;;1.70;1.60;;;;;;;;;;5115257;28;20447;-76
2021/05/24 11:36:10;;;;;;;2.27;1.20;;;;;;;;;;5115907;28;20443;-74
2021/05/24 11:38:37;;;;;;;1.73;1.33;;;;;;;;;;5116098;28;20445;-75
2021/05/24 11:41:07;;;;;;;3.57;1.60;;;;;;;;;;5116181;28;20533;-76
2021/05/24 11:43:34;;;;;;;3.23;1.80;;;;;;;;;;5116730;28;20446;-76
2021/05/24 11:46:04;;;;;;;1.60;1.50;;;;;;;;;;5116125;28;20431;-76
2021/05/24 11:48:41;;;;;;;3.50;2.03;;;;;;;;;;5116421;28;20440;-77
2021/05/24 11:51:10;;;;;;;1.43;1.30;;;;;;;;;;5115546;28;20504;-76
2021/05/24 11:53:37;;;;;;;1.63;1.53;;;;;;;;;;5115833;28;20443;-75
2021/05/24 11:56:12;;;;;;;1.57;1.20;;;;;;;;;;5115546;28;20454;-77
2021/05/24 11:58:57;;;;;;;2.17;1.53;;;;;;;;;;5115818;28;20424;-75
2021/05/24 12:01:24;;;;;;;5.53;1.70;;;;;;;;;;5115224;28;20984;-75
2021/05/24 12:03:51;;;;;;;3.10;1.73;;;;;;;;;;5115084;28;20473;-76
2021/05/24 12:06:19;;;;;;;1.57;1.40;;;;;;;;;;5115192;28;20439;-74
2021/05/24 12:08:46;;;;;;;1.77;1.67;;;;;;;;;;5115265;28;20446;-76
2021/05/24 12:11:13;;;;;;;5.30;1.70;;;;;;;;;;5115233;28;20478;-76
2021/05/24 12:13:56;;;;;;;2.13;1.70;;;;;;;;;;5115052;28;20435;-75
2021/05/24 12:16:23;;;;;;;3.50;1.90;;;;;;;;;;5115369;28;20979;-74
2021/05/24 12:18:51;;;;;;;2.57;1.73;;;;;;;;;;5114971;28;20537;-75
2021/05/24 12:21:31;;;;;;;4.20;1.70;;;;;;;;;;5115328;28;20438;-75
2021/05/24 12:23:59;;;;;;;1.63;1.33;;;;;;;;;;5114889;28;20537;-76
2021/05/24 12:26:26;;;;;;;5.10;2.13;;;;;;;;;;5115114;28;20554;-78
2021/05/24 12:28:53;;;;;;;3.47;1.50;;;;;;;;;;5114970;28;20629;-75
2021/05/24 12:31:20;;;;;;;4.07;1.70;;;;;;;;;;5114785;28;20478;-76
2021/05/24 12:33:47;;;;;;;3.60;1.50;;;;;;;;;;5115039;28;20854;-76
2021/05/24 12:36:17;;;;;;;2.07;1.57;;;;;;;;;;5115043;28;20495;-76
2021/05/24 12:38:47;;;;;;;1.83;1.60;;;;;;;;;;5115048;28;20446;-76
2021/05/24 12:41:15;;;;;;;7.73;2.67;;;;;;;;;;5115105;28;20453;-76
2021/05/24 12:44:01;;;;;;;2.70;1.77;;;;;;;;;;5114075;28;20477;-77
2021/05/24 12:46:28;;;;;;;2.83;2.10;;;;;;;;;;5115076;28;20428;-76
2021/05/24 12:48:57;;;;;;;2.23;1.40;;;;;;;;;;5114477;28;20499;-77
2021/05/24 12:51:25;;;;;;;1.90;1.70;;;;;;;;;;5114730;28;20525;-75
2021/05/24 12:53:53;;;;;;;3.73;1.67;;;;;;;;;;5114342;28;20485;-75
2021/05/24 12:56:20;;;;;;;1.80;1.60;;;;;;;;;;5114485;28;20480;-77
2021/05/24 12:58:47;;;;;;;4.23;1.40;;;;;;;;;;5114531;28;20765;-77
2021/05/24 13:01:28;;;;;;;2.80;1.60;;;;;;;;;;5114409;28;20446;-77
2021/05/24 13:03:55;;;;;;;2.30;1.43;;;;;;;;;;5114034;28;20451;-77
2021/05/24 13:06:22;;;;;;;2.60;1.70;;;;;;;;;;5114018;28;20958;-76
2021/05/24 13:08:50;;;;;;;1.97;1.50;;;;;;;;;;5113932;28;20501;-75
2021/05/24 13:11:18;;;;;;;2.60;1.77;;;;;;;;;;5114241;28;20481;-75
2021/05/24 13:13:46;;;;;;;1.90;1.77;;;;;;;;;;5114285;28;20434;-75
2021/05/24 13:16:20;;;;;;;2.50;1.73;;;;;;;;;;5114003;28;20453;-76
2021/05/24 13:19:07;;;;;;;4.27;1.80;;;;;;;;;;5113989;28;20507;-75
2021/05/24 13:24:51;;;;;;;1.60;1.50;;;;;;;;;;5113514;28;20793;-75
2021/05/24 13:27:44;;;;;;;2.87;1.87;;;;;;;;;;5114009;28;20478;-75
2021/05/24 13:30:13;;;;;;;4.03;1.80;;;;;;;;;;5113972;28;20423;-75
2021/05/24 13:32:40;;;;;;;4.83;1.87;;;;;;;;;;5113865;28;20485;-76
2021/05/24 13:35:22;;;;;;;2.53;1.80;;;;;;;;;;5114424;28;20442;-75
2021/05/24 13:37:48;;;;;;;1.90;1.47;;;;;;;;;;5114129;28;20439;-75
2021/05/24 13:40:16;;;;;;;2.00;1.60;;;;;;;;;;5113518;28;20450;-75
2021/05/24 13:42:44;;;;;;;4.90;2.00;;;;;;;;;;5113862;28;20446;-75
2021/05/24 13:45:12;;;;;;;2.47;1.40;;;;;;;;;;5113363;28;20440;-75
2021/05/24 13:47:39;;;;;;;2.23;1.40;;;;;;;;;;5114002;28;20930;-75
2021/05/24 13:50:06;;;;;;;2.03;1.30;;;;;;;;;;5113686;28;20442;-75
2021/05/24 13:52:33;;;;;;;1.43;1.33;;;;;;;;;;5113782;28;21067;-76
2021/05/24 13:54:59;;;;;;;1.60;1.50;;;;;;;;;;5113923;28;20443;-75
2021/05/24 13:57:26;;;;;;;2.53;1.27;;;;;;;;;;5117796;28;20573;-77
2021/05/24 13:59:53;;;;;;;3.20;1.90;;;;;;;;;;5117736;28;20892;-76
2021/05/24 14:02:21;;;;;;;2.07;1.97;;;;;;;;;;5117791;28;20439;-76
2021/05/24 14:04:47;;;;;;;1.73;1.53;;;;;;;;;;5117805;28;20435;-76
2021/05/24 14:07:14;;;;;;;1.97;1.30;;;;;;;;;;5118291;28;20447;-74
2021/05/24 14:09:41;;;;;;;1.90;1.43;;;;;;;;;;5117457;28;20932;-74
2021/05/24 14:12:07;;;;;;;1.70;1.60;;;;;;;;;;5117616;28;20830;-73
2021/05/24 14:14:34;;;;;;;2.40;1.10;;;;;;;;;;5117679;28;20464;-75
2021/05/24 14:17:01;;;;;;;1.17;1.10;;;;;;;;;;5117851;28;20801;-76
2021/05/24 14:19:29;;;;;;;1.83;1.53;;;;;;;;;;5117503;28;20449;-76
2021/05/24 14:21:56;;;;;;;3.37;1.50;;;;;;;;;;5117249;28;20439;-77
2021/05/24 14:24:22;;;;;;;2.30;1.40;;;;;;;;;;5117455;28;20449;-76
2021/05/24 14:26:49;;;;;;;3.43;1.60;;;;;;;;;;5117594;28;20468;-76
2021/05/24 14:29:17;;;;;;;1.40;1.30;;;;;;;;;;5117116;28;20438;-76
2021/05/24 14:31:44;;;;;;;2.03;1.27;;;;;;;;;;5122948;27;20476;-77
2021/05/24 14:34:10;;;;;;;1.83;1.30;;;;;;;;;;5131482;27;20441;-77
2021/05/24 14:36:40;;;;;;;1.30;1.20;;;;;;;;;;5138214;27;20444;-76
2021/05/24 14:39:08;;;;;;;3.00;1.50;;;;;;;;;;5137374;27;20508;-77
2021/05/24 14:41:35;;;;;;;2.27;1.80;;;;;;;;;;5137729;27;20445;-76
2021/05/24 14:44:01;;;;;;;1.80;1.40;;;;;;;;;;5137580;27;20784;-76
2021/05/24 14:46:29;;;;;;;1.63;1.40;;;;;;;;;;5137611;27;20449;-77
2021/05/24 14:49:02;;;;;;;2.40;1.60;;;;;;;;;;5137785;27;20971;-76
2021/05/24 14:51:33;;;;;;;1.80;1.53;;;;;;;;;;5136971;27;20475;-76
2021/05/24 14:54:07;;;;;;;1.50;1.40;;;;;;;;;;5137718;27;20422;-77